sensor_id;sensor_type;location;lat;lon;timestamp;temperature;humidity
19888;DHT22;10106;51.332;12.336;2023-07-30T00:01:57;16.80;99.90
19888;DHT22;10106;51.332;12.336;2023-07-30T00:04:22;16.80;99.90
19888;DHT22;10106;51.332;12.336;2023-07-30T00:06:48;16.80;99.90
19888;DHT22;10106;51.332;12.336;2023-07-30T00:09:14;16.70;99.90
19888;DHT22;10106;51.332;12.336;2023-07-30T00:11:40;16.70;99.90
19888;DHT22;10106;51.332;12.336;2023-07-30T00:14:05;16.70;99.90
19888;DHT22;10106;51.332;12.336;2023-07-30T00:16:31;16.70;99.90
19888;DHT22;10106;51.332;12.336;2023-07-30T00:18:59;16.60;99.90
19888;DHT22;10106;51.332;12.336;2023-07-30T00:21:25;16.60;99.90
19888;DHT22;10106;51.332;12.336;2023-07-30T00:23:51;16.60;99.90
19888;DHT22;10106;51.332;12.336;2023-07-30T00:26:16;16.60;99.90
19888;DHT22;10106;51.332;12.336;2023-07-30T00:28:42;16.60;99.90
19888;DHT22;10106;51.332;12.336;2023-07-30T00:31:08;16.50;99.90
19888;DHT22;10106;51.332;12.336;2023-07-30T00:33:33;16.50;99.90
19888;DHT22;10106;51.332;12.336;2023-07-30T00:36:01;16.50;99.90
19888;DHT22;10106;51.332;12.336;2023-07-30T00:38:27;16.50;99.90
19888;DHT22;10106;51.332;12.336;2023-07-30T00:40:53;16.60;99.90
19888;DHT22;10106;51.332;12.336;2023-07-30T00:43:18;16.50;99.90
19888;DHT22;10106;51.332;12.336;2023-07-30T00:45:44;16.60;99.90
19888;DHT22;10106;51.332;12.336;2023-07-30T00:48:11;16.50;99.90
19888;DHT22;10106;51.332;12.336;2023-07-30T00:50:38;16.50;99.90
19888;DHT22;10106;51.332;12.336;2023-07-30T00:53:03;16.50;99.90
19888;DHT22;10106;51.332;12.336;2023-07-30T00:55:29;16.50;99.90
19888;DHT22;10106;51.332;12.336;2023-07-30T00:57:55;16.50;99.90
19888;DHT22;10106;51.332;12.336;2023-07-30T01:00:22;16.50;99.90
19888;DHT22;10106;51.332;12.336;2023-07-30T01:02:50;16.50;99.90
19888;DHT22;10106;51.332;12.336;2023-07-30T01:05:16;16.50;99.90
19888;DHT22;10106;51.332;12.336;2023-07-30T01:07:42;16.50;99.90
19888;DHT22;10106;51.332;12.336;2023-07-30T01:10:07;16.50;99.90
19888;DHT22;10106;51.332;12.336;2023-07-30T01:12:33;16.50;99.90
19888;DHT22;10106;51.332;12.336;2023-07-30T01:14:59;16.50;99.90
19888;DHT22;10106;51.332;12.336;2023-07-30T01:17:25;16.50;99.90
19888;DHT22;10106;51.332;12.336;2023-07-30T01:19:54;16.50;99.90
19888;DHT22;10106;51.332;12.336;2023-07-30T01:22:22;16.50;99.90
19888;DHT22;10106;51.332;12.336;2023-07-30T01:24:48;16.50;99.90
19888;DHT22;10106;51.332;12.336;2023-07-30T01:27:16;16.60;99.90
19888;DHT22;10106;51.332;12.336;2023-07-30T01:29:54;16.60;99.90
19888;DHT22;10106;51.332;12.336;2023-07-30T01:32:30;16.50;99.90
19888;DHT22;10106;51.332;12.336;2023-07-30T01:34:57;16.50;99.90
19888;DHT22;10106;51.332;12.336;2023-07-30T01:37:23;16.50;99.90
19888;DHT22;10106;51.332;12.336;2023-07-30T01:39:49;16.50;99.90
19888;DHT22;10106;51.332;12.336;2023-07-30T01:42:15;16.50;99.90
19888;DHT22;10106;51.332;12.336;2023-07-30T01:44:41;16.50;99.90
19888;DHT22;10106;51.332;12.336;2023-07-30T01:47:06;16.50;99.90
19888;DHT22;10106;51.332;12.336;2023-07-30T01:49:32;16.50;99.90
19888;DHT22;10106;51.332;12.336;2023-07-30T01:51:58;16.50;99.90
19888;DHT22;10106;51.332;12.336;2023-07-30T01:54:23;16.50;99.90
19888;DHT22;10106;51.332;12.336;2023-07-30T01:56:49;16.50;99.90
19888;DHT22;10106;51.332;12.336;2023-07-30T01:59:14;16.50;99.90
19888;DHT22;10106;51.332;12.336;2023-07-30T02:01:41;16.50;99.90
19888;DHT22;10106;51.332;12.336;2023-07-30T02:04:07;16.40;99.90
19888;DHT22;10106;51.332;12.336;2023-07-30T02:06:32;16.40;99.90
19888;DHT22;10106;51.332;12.336;2023-07-30T02:08:58;16.40;99.90
19888;DHT22;10106;51.332;12.336;2023-07-30T02:11:24;16.40;99.90
19888;DHT22;10106;51.332;12.336;2023-07-30T02:13:49;16.40;99.90
19888;DHT22;10106;51.332;12.336;2023-07-30T02:16:15;16.50;99.90
19888;DHT22;10106;51.332;12.336;2023-07-30T02:18:40;16.50;99.90
19888;DHT22;10106;51.332;12.336;2023-07-30T02:24:09;16.50;99.90
19888;DHT22;10106;51.332;12.336;2023-07-30T02:26:37;16.60;99.90
19888;DHT22;10106;51.332;12.336;2023-07-30T02:29:03;16.50;99.90
19888;DHT22;10106;51.332;12.336;2023-07-30T02:33:56;16.60;99.90
19888;DHT22;10106;51.332;12.336;2023-07-30T02:36:21;16.60;99.90
19888;DHT22;10106;51.332;12.336;2023-07-30T02:38:47;16.60;99.90
19888;DHT22;10106;51.332;12.336;2023-07-30T02:41:13;16.70;99.90
19888;DHT22;10106;51.332;12.336;2023-07-30T02:43:39;16.70;99.90
19888;DHT22;10106;51.332;12.336;2023-07-30T02:46:04;16.70;99.90
19888;DHT22;10106;51.332;12.336;2023-07-30T02:48:32;16.80;99.90
19888;DHT22;10106;51.332;12.336;2023-07-30T02:50:57;16.80;99.90
19888;DHT22;10106;51.332;12.336;2023-07-30T02:53:23;16.80;99.90
19888;DHT22;10106;51.332;12.336;2023-07-30T02:55:49;16.90;99.90
19888;DHT22;10106;51.332;12.336;2023-07-30T02:58:14;16.90;99.90
19888;DHT22;10106;51.332;12.336;2023-07-30T03:00:40;16.90;99.90
19888;DHT22;10106;51.332;12.336;2023-07-30T03:03:06;17.00;99.90
19888;DHT22;10106;51.332;12.336;2023-07-30T03:05:31;17.00;99.90
19888;DHT22;10106;51.332;12.336;2023-07-30T03:07:57;17.00;99.90
19888;DHT22;10106;51.332;12.336;2023-07-30T03:10:22;17.00;99.90
19888;DHT22;10106;51.332;12.336;2023-07-30T03:12:48;17.10;99.90
19888;DHT22;10106;51.332;12.336;2023-07-30T03:15:17;17.10;99.90
19888;DHT22;10106;51.332;12.336;2023-07-30T03:17:42;17.10;99.90
19888;DHT22;10106;51.332;12.336;2023-07-30T03:20:08;17.10;99.90
19888;DHT22;10106;51.332;12.336;2023-07-30T03:22:34;17.10;99.90
19888;DHT22;10106;51.332;12.336;2023-07-30T03:25:00;17.10;99.90
19888;DHT22;10106;51.332;12.336;2023-07-30T03:27:25;17.10;99.90
19888;DHT22;10106;51.332;12.336;2023-07-30T03:29:51;17.10;99.90
19888;DHT22;10106;51.332;12.336;2023-07-30T03:32:16;17.10;99.90
19888;DHT22;10106;51.332;12.336;2023-07-30T03:34:42;17.10;99.90
19888;DHT22;10106;51.332;12.336;2023-07-30T03:37:08;17.10;99.90
19888;DHT22;10106;51.332;12.336;2023-07-30T03:39:33;17.20;99.90
19888;DHT22;10106;51.332;12.336;2023-07-30T03:41:59;17.10;99.90
19888;DHT22;10106;51.332;12.336;2023-07-30T03:44:25;17.10;99.90
19888;DHT22;10106;51.332;12.336;2023-07-30T03:46:50;17.10;99.90
19888;DHT22;10106;51.332;12.336;2023-07-30T03:49:16;17.10;99.90
19888;DHT22;10106;51.332;12.336;2023-07-30T03:51:41;17.10;99.90
19888;DHT22;10106;51.332;12.336;2023-07-30T03:54:08;17.10;99.90
19888;DHT22;10106;51.332;12.336;2023-07-30T03:56:34;17.10;99.90
19888;DHT22;10106;51.332;12.336;2023-07-30T03:59:00;17.20;99.90
19888;DHT22;10106;51.332;12.336;2023-07-30T04:01:25;17.20;99.90
19888;DHT22;10106;51.332;12.336;2023-07-30T04:03:51;17.20;99.90
19888;DHT22;10106;51.332;12.336;2023-07-30T04:06:16;17.20;99.90
19888;DHT22;10106;51.332;12.336;2023-07-30T04:08:42;17.20;99.90
19888;DHT22;10106;51.332;12.336;2023-07-30T04:11:07;17.30;99.90
19888;DHT22;10106;51.332;12.336;2023-07-30T04:13:33;17.30;99.90
19888;DHT22;10106;51.332;12.336;2023-07-30T04:15:59;17.40;99.90
19888;DHT22;10106;51.332;12.336;2023-07-30T04:18:24;17.40;99.90
19888;DHT22;10106;51.332;12.336;2023-07-30T04:20:50;17.40;99.90
19888;DHT22;10106;51.332;12.336;2023-07-30T04:23:15;17.50;99.90
19888;DHT22;10106;51.332;12.336;2023-07-30T04:25:42;17.60;99.90
19888;DHT22;10106;51.332;12.336;2023-07-30T04:28:08;17.60;99.90
19888;DHT22;10106;51.332;12.336;2023-07-30T04:30:33;17.70;99.90
19888;DHT22;10106;51.332;12.336;2023-07-30T04:32:59;17.70;99.90
19888;DHT22;10106;51.332;12.336;2023-07-30T04:35:24;17.70;99.90
19888;DHT22;10106;51.332;12.336;2023-07-30T04:37:50;17.80;99.90
19888;DHT22;10106;51.332;12.336;2023-07-30T04:40:15;17.90;99.90
19888;DHT22;10106;51.332;12.336;2023-07-30T04:42:41;18.00;99.90
19888;DHT22;10106;51.332;12.336;2023-07-30T04:45:07;18.10;99.90
19888;DHT22;10106;51.332;12.336;2023-07-30T04:47:33;18.10;99.90
19888;DHT22;10106;51.332;12.336;2023-07-30T04:49:58;18.20;99.90
19888;DHT22;10106;51.332;12.336;2023-07-30T04:52:24;18.20;99.90
19888;DHT22;10106;51.332;12.336;2023-07-30T04:54:49;18.30;99.90
19888;DHT22;10106;51.332;12.336;2023-07-30T04:57:15;18.40;99.90
19888;DHT22;10106;51.332;12.336;2023-07-30T04:59:40;18.50;99.90
19888;DHT22;10106;51.332;12.336;2023-07-30T05:07:17;18.70;99.90
19888;DHT22;10106;51.332;12.336;2023-07-30T05:09:43;18.70;99.90
19888;DHT22;10106;51.332;12.336;2023-07-30T05:12:09;18.70;99.90
19888;DHT22;10106;51.332;12.336;2023-07-30T05:14:35;18.70;99.90
19888;DHT22;10106;51.332;12.336;2023-07-30T05:17:00;18.80;99.90
19888;DHT22;10106;51.332;12.336;2023-07-30T05:19:26;18.90;99.90
19888;DHT22;10106;51.332;12.336;2023-07-30T05:21:51;19.30;99.90
19888;DHT22;10106;51.332;12.336;2023-07-30T05:24:17;19.70;99.90
19888;DHT22;10106;51.332;12.336;2023-07-30T05:26:44;20.10;99.90
19888;DHT22;10106;51.332;12.336;2023-07-30T05:29:09;20.50;99.90
19888;DHT22;10106;51.332;12.336;2023-07-30T05:31:35;20.70;99.90
19888;DHT22;10106;51.332;12.336;2023-07-30T05:34:01;20.70;99.90
19888;DHT22;10106;51.332;12.336;2023-07-30T05:36:26;20.70;99.90
19888;DHT22;10106;51.332;12.336;2023-07-30T05:38:52;20.80;99.90
19888;DHT22;10106;51.332;12.336;2023-07-30T05:41:17;21.20;99.90
19888;DHT22;10106;51.332;12.336;2023-07-30T05:43:43;21.70;99.90
19888;DHT22;10106;51.332;12.336;2023-07-30T05:46:09;21.80;99.90
19888;DHT22;10106;51.332;12.336;2023-07-30T05:48:35;21.70;99.90
19888;DHT22;10106;51.332;12.336;2023-07-30T05:51:00;21.60;99.90
19888;DHT22;10106;51.332;12.336;2023-07-30T05:53:26;21.70;99.90
19888;DHT22;10106;51.332;12.336;2023-07-30T05:55:54;21.90;99.90
19888;DHT22;10106;51.332;12.336;2023-07-30T05:58:20;23.20;99.90
19888;DHT22;10106;51.332;12.336;2023-07-30T06:03:12;26.70;99.90
19888;DHT22;10106;51.332;12.336;2023-07-30T06:08:04;27.60;99.90
19888;DHT22;10106;51.332;12.336;2023-07-30T06:10:29;28.70;99.90
19888;DHT22;10106;51.332;12.336;2023-07-30T06:12:55;27.70;99.90
19888;DHT22;10106;51.332;12.336;2023-07-30T06:15:20;26.20;99.90
19888;DHT22;10106;51.332;12.336;2023-07-30T06:17:46;26.60;99.90
19888;DHT22;10106;51.332;12.336;2023-07-30T06:20:11;26.70;99.90
19888;DHT22;10106;51.332;12.336;2023-07-30T06:22:37;25.90;99.90
19888;DHT22;10106;51.332;12.336;2023-07-30T06:25:03;25.10;99.90
19888;DHT22;10106;51.332;12.336;2023-07-30T06:27:34;24.40;99.90
19888;DHT22;10106;51.332;12.336;2023-07-30T06:29:59;23.80;99.90
19888;DHT22;10106;51.332;12.336;2023-07-30T06:32:25;23.30;99.90
19888;DHT22;10106;51.332;12.336;2023-07-30T06:34:51;23.00;99.90
19888;DHT22;10106;51.332;12.336;2023-07-30T06:37:17;23.60;99.90
19888;DHT22;10106;51.332;12.336;2023-07-30T06:39:42;24.70;99.90
19888;DHT22;10106;51.332;12.336;2023-07-30T06:42:08;26.30;99.90
19888;DHT22;10106;51.332;12.336;2023-07-30T06:44:34;28.20;99.90
19888;DHT22;10106;51.332;12.336;2023-07-30T06:46:59;28.60;99.90
19888;DHT22;10106;51.332;12.336;2023-07-30T06:49:25;28.50;99.90
19888;DHT22;10106;51.332;12.336;2023-07-30T06:51:52;28.20;99.90
19888;DHT22;10106;51.332;12.336;2023-07-30T06:54:17;28.70;99.90
19888;DHT22;10106;51.332;12.336;2023-07-30T06:56:43;30.20;99.90
19888;DHT22;10106;51.332;12.336;2023-07-30T06:59:08;32.00;93.70
19888;DHT22;10106;51.332;12.336;2023-07-30T07:01:34;31.90;92.90
19888;DHT22;10106;51.332;12.336;2023-07-30T07:04:00;31.90;91.10
19888;DHT22;10106;51.332;12.336;2023-07-30T07:06:25;31.20;91.00
19888;DHT22;10106;51.332;12.336;2023-07-30T07:08:51;31.80;90.20
19888;DHT22;10106;51.332;12.336;2023-07-30T07:11:17;32.20;87.20
19888;DHT22;10106;51.332;12.336;2023-07-30T07:13:42;31.20;87.60
19888;DHT22;10106;51.332;12.336;2023-07-30T07:16:08;31.20;88.60
19888;DHT22;10106;51.332;12.336;2023-07-30T07:18:34;30.20;86.70
19888;DHT22;10106;51.332;12.336;2023-07-30T07:20:59;28.80;88.70
19888;DHT22;10106;51.332;12.336;2023-07-30T07:23:25;28.10;91.20
19888;DHT22;10106;51.332;12.336;2023-07-30T07:25:51;28.30;91.30
19888;DHT22;10106;51.332;12.336;2023-07-30T07:28:17;29.90;89.30
19888;DHT22;10106;51.332;12.336;2023-07-30T07:30:45;31.80;82.30
19888;DHT22;10106;51.332;12.336;2023-07-30T07:33:10;33.20;76.20
19888;DHT22;10106;51.332;12.336;2023-07-30T07:35:39;33.50;73.50
19888;DHT22;10106;51.332;12.336;2023-07-30T07:38:06;33.50;71.30
19888;DHT22;10106;51.332;12.336;2023-07-30T07:40:38;33.30;71.20
19888;DHT22;10106;51.332;12.336;2023-07-30T07:43:09;33.50;71.10
19888;DHT22;10106;51.332;12.336;2023-07-30T07:45:35;33.10;70.00
19888;DHT22;10106;51.332;12.336;2023-07-30T07:48:01;32.50;71.30
19888;DHT22;10106;51.332;12.336;2023-07-30T07:50:26;31.60;72.10
19888;DHT22;10106;51.332;12.336;2023-07-30T07:52:52;31.10;74.70
19888;DHT22;10106;51.332;12.336;2023-07-30T07:55:17;30.70;75.80
19888;DHT22;10106;51.332;12.336;2023-07-30T07:57:43;30.50;77.50
19888;DHT22;10106;51.332;12.336;2023-07-30T08:00:09;30.10;77.70
19888;DHT22;10106;51.332;12.336;2023-07-30T08:02:35;29.70;77.80
19888;DHT22;10106;51.332;12.336;2023-07-30T08:05:00;29.00;79.40
19888;DHT22;10106;51.332;12.336;2023-07-30T08:07:26;28.10;83.40
19888;DHT22;10106;51.332;12.336;2023-07-30T08:09:51;27.80;86.80
19888;DHT22;10106;51.332;12.336;2023-07-30T08:12:19;28.80;87.50
19888;DHT22;10106;51.332;12.336;2023-07-30T08:14:44;29.00;84.60
19888;DHT22;10106;51.332;12.336;2023-07-30T08:17:13;29.60;83.80
19888;DHT22;10106;51.332;12.336;2023-07-30T08:19:38;29.00;84.70
19888;DHT22;10106;51.332;12.336;2023-07-30T08:22:07;28.90;86.10
19888;DHT22;10106;51.332;12.336;2023-07-30T08:24:33;28.40;88.60
19888;DHT22;10106;51.332;12.336;2023-07-30T08:26:58;27.80;90.70
19888;DHT22;10106;51.332;12.336;2023-07-30T08:29:24;27.00;93.20
19888;DHT22;10106;51.332;12.336;2023-07-30T08:31:49;27.20;95.00
19888;DHT22;10106;51.332;12.336;2023-07-30T08:34:15;27.70;94.30
19888;DHT22;10106;51.332;12.336;2023-07-30T08:36:44;27.40;93.40
19888;DHT22;10106;51.332;12.336;2023-07-30T08:39:10;28.60;93.50
19888;DHT22;10106;51.332;12.336;2023-07-30T08:41:36;31.10;85.90
19888;DHT22;10106;51.332;12.336;2023-07-30T08:44:02;31.90;78.20
19888;DHT22;10106;51.332;12.336;2023-07-30T08:46:27;31.40;78.10
19888;DHT22;10106;51.332;12.336;2023-07-30T08:48:53;32.20;75.90
19888;DHT22;10106;51.332;12.336;2023-07-30T08:51:19;33.30;72.30
19888;DHT22;10106;51.332;12.336;2023-07-30T08:53:47;35.20;68.40
19888;DHT22;10106;51.332;12.336;2023-07-30T08:56:13;34.50;64.40
19888;DHT22;10106;51.332;12.336;2023-07-30T08:58:38;34.00;65.20
19888;DHT22;10106;51.332;12.336;2023-07-30T09:01:10;35.20;63.30
19888;DHT22;10106;51.332;12.336;2023-07-30T09:03:40;35.20;59.80
19888;DHT22;10106;51.332;12.336;2023-07-30T09:06:06;36.30;57.70
19888;DHT22;10106;51.332;12.336;2023-07-30T09:08:31;36.50;56.70
19888;DHT22;10106;51.332;12.336;2023-07-30T09:11:07;37.50;55.60
19888;DHT22;10106;51.332;12.336;2023-07-30T09:13:40;37.40;53.60
19888;DHT22;10106;51.332;12.336;2023-07-30T09:16:09;36.30;54.00
19888;DHT22;10106;51.332;12.336;2023-07-30T09:18:42;35.90;54.40
19888;DHT22;10106;51.332;12.336;2023-07-30T09:21:09;35.30;56.20
19888;DHT22;10106;51.332;12.336;2023-07-30T09:23:42;33.90;57.00
19888;DHT22;10106;51.332;12.336;2023-07-30T09:26:08;34.30;58.10
19888;DHT22;10106;51.332;12.336;2023-07-30T09:31:03;36.00;54.70
19888;DHT22;10106;51.332;12.336;2023-07-30T09:33:30;36.10;53.70
19888;DHT22;10106;51.332;12.336;2023-07-30T09:36:02;36.00;51.50
19888;DHT22;10106;51.332;12.336;2023-07-30T09:38:28;35.40;51.30
19888;DHT22;10106;51.332;12.336;2023-07-30T09:41:05;35.70;52.30
19888;DHT22;10106;51.332;12.336;2023-07-30T09:43:34;35.40;51.30
19888;DHT22;10106;51.332;12.336;2023-07-30T09:46:03;34.60;51.40
19888;DHT22;10106;51.332;12.336;2023-07-30T09:48:32;33.90;53.60
19888;DHT22;10106;51.332;12.336;2023-07-30T09:50:59;34.80;52.80
19888;DHT22;10106;51.332;12.336;2023-07-30T09:53:28;35.40;52.20
19888;DHT22;10106;51.332;12.336;2023-07-30T09:55:54;35.50;51.50
19888;DHT22;10106;51.332;12.336;2023-07-30T09:58:21;36.30;51.40
19888;DHT22;10106;51.332;12.336;2023-07-30T10:00:47;36.40;49.90
19888;DHT22;10106;51.332;12.336;2023-07-30T10:03:14;35.60;50.00
19888;DHT22;10106;51.332;12.336;2023-07-30T10:05:40;33.40;51.90
19888;DHT22;10106;51.332;12.336;2023-07-30T10:08:08;33.80;53.10
19888;DHT22;10106;51.332;12.336;2023-07-30T10:10:34;34.60;52.40
19888;DHT22;10106;51.332;12.336;2023-07-30T10:13:01;35.00;51.20
19888;DHT22;10106;51.332;12.336;2023-07-30T10:15:28;34.50;50.90
19888;DHT22;10106;51.332;12.336;2023-07-30T10:17:55;33.70;51.90
19888;DHT22;10106;51.332;12.336;2023-07-30T10:20:25;32.40;53.30
19888;DHT22;10106;51.332;12.336;2023-07-30T10:23:01;31.30;54.60
19888;DHT22;10106;51.332;12.336;2023-07-30T10:25:48;30.60;56.50
19888;DHT22;10106;51.332;12.336;2023-07-30T10:28:33;29.90;58.30
19888;DHT22;10106;51.332;12.336;2023-07-30T10:31:00;29.60;59.10
19888;DHT22;10106;51.332;12.336;2023-07-30T10:33:47;28.90;59.90
19888;DHT22;10106;51.332;12.336;2023-07-30T10:36:11;28.50;61.70
19888;DHT22;10106;51.332;12.336;2023-07-30T10:38:37;28.40;60.80
19888;DHT22;10106;51.332;12.336;2023-07-30T10:41:12;28.50;60.80
19888;DHT22;10106;51.332;12.336;2023-07-30T10:43:42;28.60;61.80
19888;DHT22;10106;51.332;12.336;2023-07-30T10:46:08;28.80;61.70
19888;DHT22;10106;51.332;12.336;2023-07-30T10:48:35;28.60;61.80
19888;DHT22;10106;51.332;12.336;2023-07-30T10:51:02;29.00;61.10
19888;DHT22;10106;51.332;12.336;2023-07-30T10:53:29;29.20;61.10
19888;DHT22;10106;51.332;12.336;2023-07-30T10:55:56;29.10;60.50
19888;DHT22;10106;51.332;12.336;2023-07-30T10:58:35;28.80;60.40
19888;DHT22;10106;51.332;12.336;2023-07-30T11:01:01;28.90;60.40
19888;DHT22;10106;51.332;12.336;2023-07-30T11:03:27;29.10;61.10
19888;DHT22;10106;51.332;12.336;2023-07-30T11:05:53;29.10;61.70
19888;DHT22;10106;51.332;12.336;2023-07-30T11:08:32;29.00;60.40
19888;DHT22;10106;51.332;12.336;2023-07-30T11:10:58;29.00;60.70
19888;DHT22;10106;51.332;12.336;2023-07-30T11:13:25;28.60;61.30
19888;DHT22;10106;51.332;12.336;2023-07-30T11:15:50;28.70;61.40
19888;DHT22;10106;51.332;12.336;2023-07-30T11:18:16;28.60;61.40
19888;DHT22;10106;51.332;12.336;2023-07-30T11:20:42;28.20;61.90
19888;DHT22;10106;51.332;12.336;2023-07-30T11:23:20;28.20;62.20
19888;DHT22;10106;51.332;12.336;2023-07-30T11:25:47;28.50;62.60
19888;DHT22;10106;51.332;12.336;2023-07-30T11:28:14;28.90;61.80
19888;DHT22;10106;51.332;12.336;2023-07-30T11:30:40;29.00;61.20
19888;DHT22;10106;51.332;12.336;2023-07-30T11:33:06;29.00;61.30
19888;DHT22;10106;51.332;12.336;2023-07-30T11:35:32;28.90;61.70
19888;DHT22;10106;51.332;12.336;2023-07-30T11:37:58;29.00;62.10
19888;DHT22;10106;51.332;12.336;2023-07-30T11:40:23;29.00;60.80
19888;DHT22;10106;51.332;12.336;2023-07-30T11:42:53;29.00;61.10
19888;DHT22;10106;51.332;12.336;2023-07-30T11:45:22;29.10;62.10
19888;DHT22;10106;51.332;12.336;2023-07-30T11:47:48;29.20;62.40
19888;DHT22;10106;51.332;12.336;2023-07-30T11:50:18;29.10;62.00
19888;DHT22;10106;51.332;12.336;2023-07-30T11:53:18;28.80;62.70
19888;DHT22;10106;51.332;12.336;2023-07-30T11:55:44;28.80;63.50
19888;DHT22;10106;51.332;12.336;2023-07-30T11:58:39;28.70;62.80
19888;DHT22;10106;51.332;12.336;2023-07-30T12:03:41;28.30;64.10
19888;DHT22;10106;51.332;12.336;2023-07-30T12:06:07;28.20;64.30
19888;DHT22;10106;51.332;12.336;2023-07-30T12:08:36;28.20;64.40
19888;DHT22;10106;51.332;12.336;2023-07-30T12:11:02;28.20;64.70
19888;DHT22;10106;51.332;12.336;2023-07-30T12:13:28;28.20;64.00
19888;DHT22;10106;51.332;12.336;2023-07-30T12:15:54;28.60;64.30
19888;DHT22;10106;51.332;12.336;2023-07-30T12:18:20;28.80;63.30
19888;DHT22;10106;51.332;12.336;2023-07-30T12:20:47;28.80;63.40
19888;DHT22;10106;51.332;12.336;2023-07-30T12:23:17;28.90;63.30
19888;DHT22;10106;51.332;12.336;2023-07-30T12:25:50;28.90;63.70
19888;DHT22;10106;51.332;12.336;2023-07-30T12:28:19;29.00;63.80
19888;DHT22;10106;51.332;12.336;2023-07-30T12:30:44;29.10;63.30
19888;DHT22;10106;51.332;12.336;2023-07-30T12:33:10;28.70;62.80
19888;DHT22;10106;51.332;12.336;2023-07-30T12:35:36;28.50;62.60
19888;DHT22;10106;51.332;12.336;2023-07-30T12:38:02;28.20;63.80
19888;DHT22;10106;51.332;12.336;2023-07-30T12:40:31;28.00;64.40
19888;DHT22;10106;51.332;12.336;2023-07-30T12:43:02;27.90;65.10
19888;DHT22;10106;51.332;12.336;2023-07-30T12:45:28;27.70;65.80
19888;DHT22;10106;51.332;12.336;2023-07-30T12:47:54;27.30;67.10
19888;DHT22;10106;51.332;12.336;2023-07-30T12:50:20;26.80;69.20
19888;DHT22;10106;51.332;12.336;2023-07-30T12:52:46;26.40;72.20
19888;DHT22;10106;51.332;12.336;2023-07-30T12:55:11;25.90;83.30
19888;DHT22;10106;51.332;12.336;2023-07-30T12:57:39;25.50;93.00
19888;DHT22;10106;51.332;12.336;2023-07-30T13:00:05;25.10;93.50
19888;DHT22;10106;51.332;12.336;2023-07-30T13:02:32;24.70;99.90
19888;DHT22;10106;51.332;12.336;2023-07-30T13:04:59;23.70;99.90
19888;DHT22;10106;51.332;12.336;2023-07-30T13:07:25;22.90;99.90
19888;DHT22;10106;51.332;12.336;2023-07-30T13:10:01;22.30;99.90
19888;DHT22;10106;51.332;12.336;2023-07-30T13:12:28;22.10;99.90
19888;DHT22;10106;51.332;12.336;2023-07-30T13:14:53;22.00;99.90
19888;DHT22;10106;51.332;12.336;2023-07-30T13:17:19;22.20;99.90
19888;DHT22;10106;51.332;12.336;2023-07-30T13:19:44;22.60;99.90
19888;DHT22;10106;51.332;12.336;2023-07-30T13:22:10;22.90;99.90
19888;DHT22;10106;51.332;12.336;2023-07-30T13:24:37;23.00;99.90
19888;DHT22;10106;51.332;12.336;2023-07-30T13:27:05;23.00;99.90
19888;DHT22;10106;51.332;12.336;2023-07-30T13:29:31;23.00;99.90
19888;DHT22;10106;51.332;12.336;2023-07-30T13:31:57;23.00;99.90
19888;DHT22;10106;51.332;12.336;2023-07-30T13:34:22;23.10;99.90
19888;DHT22;10106;51.332;12.336;2023-07-30T13:36:48;23.10;99.90
19888;DHT22;10106;51.332;12.336;2023-07-30T13:39:15;23.20;99.90
19888;DHT22;10106;51.332;12.336;2023-07-30T13:41:40;23.30;99.90
19888;DHT22;10106;51.332;12.336;2023-07-30T13:44:15;23.30;99.90
19888;DHT22;10106;51.332;12.336;2023-07-30T13:46:41;23.30;99.90
19888;DHT22;10106;51.332;12.336;2023-07-30T13:49:10;23.20;99.90
19888;DHT22;10106;51.332;12.336;2023-07-30T13:51:39;23.10;99.90
19888;DHT22;10106;51.332;12.336;2023-07-30T13:54:07;22.90;99.90
19888;DHT22;10106;51.332;12.336;2023-07-30T13:56:36;22.90;99.90
19888;DHT22;10106;51.332;12.336;2023-07-30T13:59:07;22.90;99.90
19888;DHT22;10106;51.332;12.336;2023-07-30T14:01:32;23.00;99.90
19888;DHT22;10106;51.332;12.336;2023-07-30T14:04:00;23.10;99.90
19888;DHT22;10106;51.332;12.336;2023-07-30T14:06:29;22.80;99.90
19888;DHT22;10106;51.332;12.336;2023-07-30T14:08:58;22.70;99.90
19888;DHT22;10106;51.332;12.336;2023-07-30T14:11:29;22.80;99.90
19888;DHT22;10106;51.332;12.336;2023-07-30T14:13:55;22.90;99.90
19888;DHT22;10106;51.332;12.336;2023-07-30T14:16:23;22.90;99.90
19888;DHT22;10106;51.332;12.336;2023-07-30T14:18:49;22.80;99.90
19888;DHT22;10106;51.332;12.336;2023-07-30T14:21:16;22.80;99.90
19888;DHT22;10106;51.332;12.336;2023-07-30T14:23:42;22.80;99.90
19888;DHT22;10106;51.332;12.336;2023-07-30T14:26:07;22.60;99.90
19888;DHT22;10106;51.332;12.336;2023-07-30T14:28:33;22.50;99.90
19888;DHT22;10106;51.332;12.336;2023-07-30T14:30:59;22.50;99.90
19888;DHT22;10106;51.332;12.336;2023-07-30T14:33:24;22.30;99.90
19888;DHT22;10106;51.332;12.336;2023-07-30T14:35:51;22.10;99.90
19888;DHT22;10106;51.332;12.336;2023-07-30T14:38:18;21.90;99.90
19888;DHT22;10106;51.332;12.336;2023-07-30T14:40:43;21.60;99.90
19888;DHT22;10106;51.332;12.336;2023-07-30T14:43:09;21.50;99.90
19888;DHT22;10106;51.332;12.336;2023-07-30T14:45:35;21.30;99.90
19888;DHT22;10106;51.332;12.336;2023-07-30T14:48:00;21.00;99.90
19888;DHT22;10106;51.332;12.336;2023-07-30T14:50:26;20.80;99.90
19888;DHT22;10106;51.332;12.336;2023-07-30T14:52:52;20.60;99.90
19888;DHT22;10106;51.332;12.336;2023-07-30T14:55:18;20.40;99.90
19888;DHT22;10106;51.332;12.336;2023-07-30T14:57:44;20.60;99.90
19888;DHT22;10106;51.332;12.336;2023-07-30T15:00:10;20.20;99.90
19888;DHT22;10106;51.332;12.336;2023-07-30T15:02:38;20.10;99.90
19888;DHT22;10106;51.332;12.336;2023-07-30T15:05:04;20.10;99.90
19888;DHT22;10106;51.332;12.336;2023-07-30T15:07:30;20.20;99.90
19888;DHT22;10106;51.332;12.336;2023-07-30T15:09:55;20.20;99.90
19888;DHT22;10106;51.332;12.336;2023-07-30T15:12:21;20.20;99.90
19888;DHT22;10106;51.332;12.336;2023-07-30T15:14:47;20.20;99.90
19888;DHT22;10106;51.332;12.336;2023-07-30T15:17:12;20.20;99.90
19888;DHT22;10106;51.332;12.336;2023-07-30T15:19:39;20.10;99.90
19888;DHT22;10106;51.332;12.336;2023-07-30T15:22:05;20.00;99.90
19888;DHT22;10106;51.332;12.336;2023-07-30T15:24:33;20.00;99.90
19888;DHT22;10106;51.332;12.336;2023-07-30T15:26:59;19.90;99.90
19888;DHT22;10106;51.332;12.336;2023-07-30T15:29:25;19.60;99.90
19888;DHT22;10106;51.332;12.336;2023-07-30T15:31:51;19.40;99.90
19888;DHT22;10106;51.332;12.336;2023-07-30T15:34:19;19.20;99.90